Terminal Aerodrome Forecast
Issued by NWS

Home | Current Version | Previous Version | Text Only | Print | Product List | Glossary Off
Versions: 1 2 3 4 5 6 7 8 9 10 11 12 13 14 15 16 17 18 19 20 21 22 23 24 25 26 27 28
000 FTUS41 KBOX 230911 AAA TAFBED TAF AMD KBED 230911Z 2309/2406 00000KT P6SM FEW080 TEMPO 2310/2312 4SM BR SCT005 FM231300 VRB03KT P6SM SCT250 FM231800 21010KT P6SM FEW250 FM240200 23005KT P6SM SCT005 FM240500 23004KT 4SM BR BKN005=

USA.gov is the U.S. government's official web portal to all federal, state and local government web resources and services.